sensor_id;sensor_type;location;lat;lon;timestamp;P1;durP1;ratioP1;P2;durP2;ratioP2
35602;SDS011;21725;50.836;4.368;2023-01-28T00:00:12;12.40;;;10.30;;
35602;SDS011;21725;50.836;4.368;2023-01-28T00:03:24;13.43;;;10.13;;
35602;SDS011;21725;50.836;4.368;2023-01-28T00:06:37;12.93;;;10.23;;
35602;SDS011;21725;50.836;4.368;2023-01-28T00:09:40;13.32;;;10.20;;
35602;SDS011;21725;50.836;4.368;2023-01-28T00:12:42;15.02;;;10.32;;
35602;SDS011;21725;50.836;4.368;2023-01-28T00:15:59;12.98;;;9.75;;
35602;SDS011;21725;50.836;4.368;2023-01-28T00:19:08;13.05;;;8.93;;
35602;SDS011;21725;50.836;4.368;2023-01-28T00:22:12;12.38;;;9.55;;
35602;SDS011;21725;50.836;4.368;2023-01-28T00:25:25;13.52;;;9.75;;
35602;SDS011;21725;50.836;4.368;2023-01-28T00:28:28;14.10;;;9.82;;
35602;SDS011;21725;50.836;4.368;2023-01-28T00:31:38;12.25;;;9.70;;
35602;SDS011;21725;50.836;4.368;2023-01-28T00:34:50;12.95;;;10.52;;
35602;SDS011;21725;50.836;4.368;2023-01-28T00:38:06;14.48;;;10.00;;
35602;SDS011;21725;50.836;4.368;2023-01-28T00:41:17;15.75;;;9.50;;
35602;SDS011;21725;50.836;4.368;2023-01-28T00:44:24;13.55;;;10.40;;
35602;SDS011;21725;50.836;4.368;2023-01-28T00:47:26;11.82;;;9.10;;
35602;SDS011;21725;50.836;4.368;2023-01-28T00:50:39;13.93;;;10.20;;
35602;SDS011;21725;50.836;4.368;2023-01-28T00:53:43;11.63;;;9.27;;
35602;SDS011;21725;50.836;4.368;2023-01-28T00:56:46;11.20;;;8.80;;
35602;SDS011;21725;50.836;4.368;2023-01-28T00:59:49;12.95;;;9.75;;
35602;SDS011;21725;50.836;4.368;2023-01-28T01:02:50;12.93;;;9.35;;
35602;SDS011;21725;50.836;4.368;2023-01-28T01:05:56;12.35;;;10.00;;
35602;SDS011;21725;50.836;4.368;2023-01-28T01:09:03;12.85;;;10.27;;
35602;SDS011;21725;50.836;4.368;2023-01-28T01:12:08;13.23;;;9.90;;
35602;SDS011;21725;50.836;4.368;2023-01-28T01:15:21;10.85;;;8.88;;
35602;SDS011;21725;50.836;4.368;2023-01-28T01:18:40;11.65;;;9.68;;
35602;SDS011;21725;50.836;4.368;2023-01-28T01:21:49;13.35;;;9.13;;
35602;SDS011;21725;50.836;4.368;2023-01-28T01:25:01;10.75;;;8.82;;
35602;SDS011;21725;50.836;4.368;2023-01-28T01:28:07;11.48;;;8.70;;
35602;SDS011;21725;50.836;4.368;2023-01-28T01:31:11;11.68;;;8.65;;
35602;SDS011;21725;50.836;4.368;2023-01-28T01:34:16;12.45;;;9.07;;
35602;SDS011;21725;50.836;4.368;2023-01-28T01:37:28;11.80;;;8.93;;
35602;SDS011;21725;50.836;4.368;2023-01-28T01:40:34;12.48;;;9.73;;
35602;SDS011;21725;50.836;4.368;2023-01-28T01:46:54;13.18;;;10.32;;
35602;SDS011;21725;50.836;4.368;2023-01-28T01:49:58;13.98;;;11.32;;
35602;SDS011;21725;50.836;4.368;2023-01-28T01:53:24;14.75;;;9.30;;
35602;SDS011;21725;50.836;4.368;2023-01-28T01:56:32;14.73;;;10.40;;
35602;SDS011;21725;50.836;4.368;2023-01-28T01:59:45;13.20;;;10.50;;
35602;SDS011;21725;50.836;4.368;2023-01-28T02:02:49;10.02;;;7.97;;
35602;SDS011;21725;50.836;4.368;2023-01-28T02:06:13;15.55;;;10.57;;
35602;SDS011;21725;50.836;4.368;2023-01-28T02:09:28;13.88;;;10.38;;
35602;SDS011;21725;50.836;4.368;2023-01-28T02:12:39;13.77;;;10.63;;
35602;SDS011;21725;50.836;4.368;2023-01-28T02:15:53;15.15;;;10.60;;
35602;SDS011;21725;50.836;4.368;2023-01-28T02:19:03;14.05;;;11.02;;
35602;SDS011;21725;50.836;4.368;2023-01-28T02:29:19;18.52;;;10.15;;
35602;SDS011;21725;50.836;4.368;2023-01-28T02:32:29;16.20;;;11.40;;
35602;SDS011;21725;50.836;4.368;2023-01-28T02:35:36;13.82;;;10.35;;
35602;SDS011;21725;50.836;4.368;2023-01-28T02:38:49;14.73;;;11.57;;
35602;SDS011;21725;50.836;4.368;2023-01-28T02:41:55;14.00;;;9.98;;
35602;SDS011;21725;50.836;4.368;2023-01-28T02:45:21;13.65;;;10.85;;
35602;SDS011;21725;50.836;4.368;2023-01-28T02:48:56;18.08;;;11.18;;
35602;SDS011;21725;50.836;4.368;2023-01-28T02:55:28;16.05;;;10.65;;
35602;SDS011;21725;50.836;4.368;2023-01-28T02:58:43;14.07;;;10.85;;
35602;SDS011;21725;50.836;4.368;2023-01-28T03:02:16;14.80;;;10.63;;
35602;SDS011;21725;50.836;4.368;2023-01-28T03:05:35;15.43;;;10.70;;
35602;SDS011;21725;50.836;4.368;2023-01-28T03:09:03;13.30;;;9.73;;
35602;SDS011;21725;50.836;4.368;2023-01-28T03:12:45;18.23;;;10.93;;
35602;SDS011;21725;50.836;4.368;2023-01-28T03:16:26;15.65;;;10.63;;
35602;SDS011;21725;50.836;4.368;2023-01-28T03:19:48;15.45;;;10.30;;
35602;SDS011;21725;50.836;4.368;2023-01-28T03:27:17;16.13;;;10.90;;
35602;SDS011;21725;50.836;4.368;2023-01-28T03:34:30;19.80;;;12.48;;
35602;SDS011;21725;50.836;4.368;2023-01-28T03:37:49;15.23;;;10.45;;
35602;SDS011;21725;50.836;4.368;2023-01-28T03:41:01;15.50;;;9.65;;
35602;SDS011;21725;50.836;4.368;2023-01-28T03:44:11;15.30;;;10.90;;
35602;SDS011;21725;50.836;4.368;2023-01-28T03:47:36;15.07;;;10.38;;
35602;SDS011;21725;50.836;4.368;2023-01-28T03:57:38;14.20;;;9.88;;
35602;SDS011;21725;50.836;4.368;2023-01-28T04:00:51;13.50;;;9.30;;
35602;SDS011;21725;50.836;4.368;2023-01-28T04:04:02;16.15;;;10.00;;
35602;SDS011;21725;50.836;4.368;2023-01-28T04:07:14;14.15;;;10.05;;
35602;SDS011;21725;50.836;4.368;2023-01-28T04:10:37;15.90;;;10.80;;
35602;SDS011;21725;50.836;4.368;2023-01-28T04:13:43;17.33;;;9.55;;
35602;SDS011;21725;50.836;4.368;2023-01-28T04:16:53;14.10;;;9.40;;
35602;SDS011;21725;50.836;4.368;2023-01-28T04:20:05;14.65;;;10.98;;
35602;SDS011;21725;50.836;4.368;2023-01-28T04:26:42;13.52;;;8.65;;
35602;SDS011;21725;50.836;4.368;2023-01-28T04:30:03;14.18;;;10.10;;
35602;SDS011;21725;50.836;4.368;2023-01-28T04:33:07;14.15;;;10.00;;
35602;SDS011;21725;50.836;4.368;2023-01-28T04:36:21;27.17;;;9.88;;
35602;SDS011;21725;50.836;4.368;2023-01-28T04:39:25;14.48;;;9.93;;
35602;SDS011;21725;50.836;4.368;2023-01-28T04:42:51;14.35;;;9.45;;
35602;SDS011;21725;50.836;4.368;2023-01-28T04:46:00;14.52;;;10.18;;
35602;SDS011;21725;50.836;4.368;2023-01-28T04:49:00;13.10;;;9.70;;
35602;SDS011;21725;50.836;4.368;2023-01-28T04:52:12;14.10;;;9.93;;
35602;SDS011;21725;50.836;4.368;2023-01-28T04:55:16;15.43;;;10.38;;
35602;SDS011;21725;50.836;4.368;2023-01-28T04:58:54;14.32;;;10.48;;
35602;SDS011;21725;50.836;4.368;2023-01-28T05:35:40;16.05;;;12.22;;
35602;SDS011;21725;50.836;4.368;2023-01-28T05:41:55;16.50;;;11.18;;
35602;SDS011;21725;50.836;4.368;2023-01-28T05:45:00;16.08;;;12.25;;
35602;SDS011;21725;50.836;4.368;2023-01-28T05:48:03;14.85;;;9.88;;
35602;SDS011;21725;50.836;4.368;2023-01-28T05:51:10;15.98;;;11.32;;
35602;SDS011;21725;50.836;4.368;2023-01-28T05:54:14;15.52;;;10.88;;
35602;SDS011;21725;50.836;4.368;2023-01-28T05:57:37;15.45;;;11.15;;
35602;SDS011;21725;50.836;4.368;2023-01-28T06:00:45;15.27;;;10.95;;
35602;SDS011;21725;50.836;4.368;2023-01-28T06:04:17;13.48;;;10.00;;
35602;SDS011;21725;50.836;4.368;2023-01-28T06:07:25;15.35;;;10.93;;
35602;SDS011;21725;50.836;4.368;2023-01-28T06:10:52;15.88;;;11.52;;
35602;SDS011;21725;50.836;4.368;2023-01-28T06:13:55;13.20;;;10.18;;
35602;SDS011;21725;50.836;4.368;2023-01-28T06:17:00;13.43;;;10.20;;
35602;SDS011;21725;50.836;4.368;2023-01-28T06:20:04;15.45;;;11.15;;
35602;SDS011;21725;50.836;4.368;2023-01-28T06:23:13;16.77;;;11.45;;
35602;SDS011;21725;50.836;4.368;2023-01-28T06:26:32;14.18;;;10.93;;
35602;SDS011;21725;50.836;4.368;2023-01-28T06:29:35;15.55;;;11.48;;
35602;SDS011;21725;50.836;4.368;2023-01-28T06:32:43;14.63;;;10.77;;
35602;SDS011;21725;50.836;4.368;2023-01-28T06:36:14;15.52;;;10.77;;
35602;SDS011;21725;50.836;4.368;2023-01-28T06:39:37;16.38;;;11.00;;
35602;SDS011;21725;50.836;4.368;2023-01-28T06:43:06;11.38;;;8.38;;
35602;SDS011;21725;50.836;4.368;2023-01-28T06:46:18;14.00;;;10.00;;
35602;SDS011;21725;50.836;4.368;2023-01-28T06:49:41;13.40;;;10.18;;
35602;SDS011;21725;50.836;4.368;2023-01-28T06:52:54;13.93;;;10.25;;
35602;SDS011;21725;50.836;4.368;2023-01-28T06:56:00;17.05;;;11.88;;
35602;SDS011;21725;50.836;4.368;2023-01-28T06:59:32;13.75;;;9.88;;
35602;SDS011;21725;50.836;4.368;2023-01-28T07:02:32;14.13;;;10.27;;
35602;SDS011;21725;50.836;4.368;2023-01-28T07:05:36;14.38;;;10.02;;
35602;SDS011;21725;50.836;4.368;2023-01-28T07:08:47;13.45;;;9.48;;
35602;SDS011;21725;50.836;4.368;2023-01-28T07:12:08;12.40;;;9.20;;
35602;SDS011;21725;50.836;4.368;2023-01-28T07:15:21;12.80;;;9.43;;
35602;SDS011;21725;50.836;4.368;2023-01-28T07:18:36;13.77;;;10.18;;
35602;SDS011;21725;50.836;4.368;2023-01-28T07:21:46;13.27;;;9.13;;
35602;SDS011;21725;50.836;4.368;2023-01-28T07:24:59;12.80;;;9.45;;
35602;SDS011;21725;50.836;4.368;2023-01-28T07:28:02;13.15;;;9.90;;
35602;SDS011;21725;50.836;4.368;2023-01-28T07:31:06;14.43;;;10.07;;
35602;SDS011;21725;50.836;4.368;2023-01-28T07:34:19;14.00;;;10.25;;
35602;SDS011;21725;50.836;4.368;2023-01-28T07:37:41;15.18;;;10.65;;
35602;SDS011;21725;50.836;4.368;2023-01-28T07:40:47;15.25;;;10.98;;
35602;SDS011;21725;50.836;4.368;2023-01-28T07:43:50;15.07;;;9.48;;
35602;SDS011;21725;50.836;4.368;2023-01-28T07:50:33;14.85;;;10.13;;
35602;SDS011;21725;50.836;4.368;2023-01-28T07:53:39;16.45;;;11.38;;
35602;SDS011;21725;50.836;4.368;2023-01-28T07:56:54;15.48;;;10.82;;
35602;SDS011;21725;50.836;4.368;2023-01-28T08:00:20;14.50;;;9.98;;
35602;SDS011;21725;50.836;4.368;2023-01-28T08:03:31;14.23;;;10.65;;
35602;SDS011;21725;50.836;4.368;2023-01-28T08:06:49;13.80;;;10.13;;
35602;SDS011;21725;50.836;4.368;2023-01-28T08:09:58;15.10;;;10.63;;
35602;SDS011;21725;50.836;4.368;2023-01-28T08:13:10;13.95;;;10.13;;
35602;SDS011;21725;50.836;4.368;2023-01-28T08:16:37;14.00;;;10.02;;
35602;SDS011;21725;50.836;4.368;2023-01-28T08:20:03;14.07;;;10.38;;
35602;SDS011;21725;50.836;4.368;2023-01-28T08:23:11;13.23;;;9.60;;
35602;SDS011;21725;50.836;4.368;2023-01-28T08:26:19;14.00;;;9.73;;
35602;SDS011;21725;50.836;4.368;2023-01-28T08:29:31;13.40;;;9.27;;
35602;SDS011;21725;50.836;4.368;2023-01-28T08:32:31;13.55;;;9.70;;
35602;SDS011;21725;50.836;4.368;2023-01-28T08:35:42;13.48;;;9.65;;
35602;SDS011;21725;50.836;4.368;2023-01-28T08:38:48;15.52;;;10.48;;
35602;SDS011;21725;50.836;4.368;2023-01-28T08:42:02;14.00;;;9.85;;
35602;SDS011;21725;50.836;4.368;2023-01-28T08:45:08;14.40;;;9.85;;
35602;SDS011;21725;50.836;4.368;2023-01-28T08:48:13;17.30;;;12.13;;
35602;SDS011;21725;50.836;4.368;2023-01-28T08:51:20;13.13;;;8.60;;
35602;SDS011;21725;50.836;4.368;2023-01-28T08:54:34;13.80;;;10.57;;
35602;SDS011;21725;50.836;4.368;2023-01-28T08:57:48;14.85;;;11.25;;
35602;SDS011;21725;50.836;4.368;2023-01-28T09:01:02;15.43;;;10.57;;
35602;SDS011;21725;50.836;4.368;2023-01-28T09:04:13;15.30;;;10.68;;
35602;SDS011;21725;50.836;4.368;2023-01-28T09:07:16;15.40;;;9.93;;
35602;SDS011;21725;50.836;4.368;2023-01-28T09:10:17;15.27;;;10.60;;
35602;SDS011;21725;50.836;4.368;2023-01-28T09:13:25;15.30;;;10.80;;
35602;SDS011;21725;50.836;4.368;2023-01-28T09:16:29;16.27;;;11.27;;
35602;SDS011;21725;50.836;4.368;2023-01-28T09:19:30;16.65;;;11.50;;
35602;SDS011;21725;50.836;4.368;2023-01-28T09:22:33;39.55;;;12.18;;
35602;SDS011;21725;50.836;4.368;2023-01-28T09:25:37;17.83;;;11.40;;
35602;SDS011;21725;50.836;4.368;2023-01-28T09:28:48;16.92;;;12.43;;
35602;SDS011;21725;50.836;4.368;2023-01-28T09:32:01;14.45;;;10.32;;
35602;SDS011;21725;50.836;4.368;2023-01-28T09:35:05;19.27;;;12.63;;
35602;SDS011;21725;50.836;4.368;2023-01-28T09:38:09;19.08;;;12.45;;
35602;SDS011;21725;50.836;4.368;2023-01-28T09:44:56;14.70;;;10.43;;
35602;SDS011;21725;50.836;4.368;2023-01-28T09:55:38;17.50;;;11.82;;
35602;SDS011;21725;50.836;4.368;2023-01-28T09:58:53;20.70;;;13.02;;
35602;SDS011;21725;50.836;4.368;2023-01-28T10:02:11;19.08;;;12.68;;
35602;SDS011;21725;50.836;4.368;2023-01-28T10:08:59;17.02;;;11.52;;
35602;SDS011;21725;50.836;4.368;2023-01-28T10:19:22;16.98;;;11.88;;
35602;SDS011;21725;50.836;4.368;2023-01-28T10:22:38;21.13;;;12.30;;
35602;SDS011;21725;50.836;4.368;2023-01-28T10:25:47;17.80;;;13.18;;
35602;SDS011;21725;50.836;4.368;2023-01-28T10:28:54;17.15;;;11.70;;
35602;SDS011;21725;50.836;4.368;2023-01-28T10:32:06;17.63;;;12.55;;
35602;SDS011;21725;50.836;4.368;2023-01-28T10:35:53;17.38;;;11.80;;
35602;SDS011;21725;50.836;4.368;2023-01-28T10:39:02;17.48;;;12.65;;
35602;SDS011;21725;50.836;4.368;2023-01-28T10:49:02;18.75;;;11.73;;
35602;SDS011;21725;50.836;4.368;2023-01-28T10:52:34;17.20;;;11.75;;
35602;SDS011;21725;50.836;4.368;2023-01-28T10:55:54;15.35;;;11.30;;
35602;SDS011;21725;50.836;4.368;2023-01-28T10:59:03;18.38;;;12.35;;
35602;SDS011;21725;50.836;4.368;2023-01-28T11:33:38;18.33;;;13.15;;
35602;SDS011;21725;50.836;4.368;2023-01-28T11:36:52;17.10;;;11.52;;
35602;SDS011;21725;50.836;4.368;2023-01-28T11:40:15;20.63;;;13.05;;
35602;SDS011;21725;50.836;4.368;2023-01-28T11:43:41;14.82;;;10.52;;
35602;SDS011;21725;50.836;4.368;2023-01-28T11:53:48;17.27;;;11.05;;
35602;SDS011;21725;50.836;4.368;2023-01-28T12:00:28;16.45;;;11.20;;
35602;SDS011;21725;50.836;4.368;2023-01-28T12:20:57;19.60;;;11.17;;
35602;SDS011;21725;50.836;4.368;2023-01-28T12:24:12;15.73;;;10.80;;
35602;SDS011;21725;50.836;4.368;2023-01-28T12:47:04;15.25;;;10.57;;
35602;SDS011;21725;50.836;4.368;2023-01-28T12:50:14;40.30;;;14.07;;
35602;SDS011;21725;50.836;4.368;2023-01-28T12:53:37;19.15;;;10.80;;
35602;SDS011;21725;50.836;4.368;2023-01-28T12:56:51;17.77;;;12.45;;
35602;SDS011;21725;50.836;4.368;2023-01-28T13:03:24;19.88;;;10.63;;
35602;SDS011;21725;50.836;4.368;2023-01-28T13:06:31;17.77;;;11.45;;
35602;SDS011;21725;50.836;4.368;2023-01-28T13:09:37;16.52;;;11.40;;
35602;SDS011;21725;50.836;4.368;2023-01-28T13:12:45;40.47;;;25.58;;
35602;SDS011;21725;50.836;4.368;2023-01-28T13:15:47;53.30;;;18.48;;
35602;SDS011;21725;50.836;4.368;2023-01-28T13:18:48;15.98;;;10.98;;
35602;SDS011;21725;50.836;4.368;2023-01-28T13:21:49;17.38;;;12.10;;
35602;SDS011;21725;50.836;4.368;2023-01-28T13:24:50;18.35;;;11.45;;
35602;SDS011;21725;50.836;4.368;2023-01-28T13:28:04;20.45;;;12.13;;
35602;SDS011;21725;50.836;4.368;2023-01-28T13:31:06;18.15;;;12.18;;
35602;SDS011;21725;50.836;4.368;2023-01-28T13:34:24;18.17;;;11.80;;
35602;SDS011;21725;50.836;4.368;2023-01-28T13:37:42;17.17;;;11.65;;
35602;SDS011;21725;50.836;4.368;2023-01-28T13:40:56;17.70;;;11.75;;
35602;SDS011;21725;50.836;4.368;2023-01-28T13:47:26;16.48;;;11.10;;
35602;SDS011;21725;50.836;4.368;2023-01-28T13:50:32;16.65;;;11.20;;
35602;SDS011;21725;50.836;4.368;2023-01-28T14:09:58;16.52;;;12.40;;
35602;SDS011;21725;50.836;4.368;2023-01-28T14:13:16;18.88;;;13.10;;
35602;SDS011;21725;50.836;4.368;2023-01-28T14:19:56;21.35;;;12.10;;
35602;SDS011;21725;50.836;4.368;2023-01-28T14:23:00;16.23;;;11.23;;
35602;SDS011;21725;50.836;4.368;2023-01-28T14:26:18;16.35;;;11.80;;
35602;SDS011;21725;50.836;4.368;2023-01-28T14:32:48;18.85;;;12.75;;
35602;SDS011;21725;50.836;4.368;2023-01-28T14:35:51;17.30;;;11.88;;
35602;SDS011;21725;50.836;4.368;2023-01-28T14:38:52;16.73;;;12.60;;
35602;SDS011;21725;50.836;4.368;2023-01-28T14:42:00;19.52;;;12.48;;
35602;SDS011;21725;50.836;4.368;2023-01-28T14:52:15;16.25;;;11.60;;
35602;SDS011;21725;50.836;4.368;2023-01-28T14:55:31;21.80;;;13.60;;
35602;SDS011;21725;50.836;4.368;2023-01-28T14:59:01;17.80;;;11.77;;
35602;SDS011;21725;50.836;4.368;2023-01-28T15:02:17;17.95;;;13.27;;
35602;SDS011;21725;50.836;4.368;2023-01-28T15:05:23;17.58;;;12.40;;
35602;SDS011;21725;50.836;4.368;2023-01-28T15:08:26;28.92;;;12.93;;
35602;SDS011;21725;50.836;4.368;2023-01-28T15:11:26;17.75;;;12.38;;
35602;SDS011;21725;50.836;4.368;2023-01-28T15:14:30;17.13;;;11.57;;
35602;SDS011;21725;50.836;4.368;2023-01-28T15:17:31;19.58;;;15.02;;
35602;SDS011;21725;50.836;4.368;2023-01-28T15:20:32;18.88;;;12.52;;
35602;SDS011;21725;50.836;4.368;2023-01-28T15:23:34;18.48;;;12.32;;
35602;SDS011;21725;50.836;4.368;2023-01-28T15:26:37;16.25;;;11.85;;
35602;SDS011;21725;50.836;4.368;2023-01-28T15:29:38;17.45;;;12.25;;
35602;SDS011;21725;50.836;4.368;2023-01-28T15:32:38;20.08;;;12.70;;
35602;SDS011;21725;50.836;4.368;2023-01-28T15:35:49;17.48;;;12.45;;
35602;SDS011;21725;50.836;4.368;2023-01-28T15:38:54;17.50;;;12.40;;
35602;SDS011;21725;50.836;4.368;2023-01-28T15:41:56;17.73;;;12.75;;
35602;SDS011;21725;50.836;4.368;2023-01-28T15:45:03;21.90;;;14.40;;
35602;SDS011;21725;50.836;4.368;2023-01-28T15:48:13;19.17;;;13.77;;
35602;SDS011;21725;50.836;4.368;2023-01-28T15:51:30;20.08;;;14.13;;
35602;SDS011;21725;50.836;4.368;2023-01-28T15:54:36;19.33;;;13.45;;
35602;SDS011;21725;50.836;4.368;2023-01-28T15:57:39;20.60;;;13.70;;
35602;SDS011;21725;50.836;4.368;2023-01-28T16:00:40;19.33;;;13.88;;
35602;SDS011;21725;50.836;4.368;2023-01-28T16:03:41;20.02;;;13.75;;
35602;SDS011;21725;50.836;4.368;2023-01-28T16:06:43;19.42;;;14.60;;
35602;SDS011;21725;50.836;4.368;2023-01-28T16:09:49;19.95;;;13.73;;
35602;SDS011;21725;50.836;4.368;2023-01-28T16:12:52;21.38;;;14.75;;
35602;SDS011;21725;50.836;4.368;2023-01-28T16:15:57;19.92;;;14.68;;
35602;SDS011;21725;50.836;4.368;2023-01-28T16:18:59;23.35;;;14.82;;
35602;SDS011;21725;50.836;4.368;2023-01-28T16:22:04;19.80;;;14.77;;
35602;SDS011;21725;50.836;4.368;2023-01-28T16:25:29;22.02;;;15.55;;
35602;SDS011;21725;50.836;4.368;2023-01-28T16:28:35;24.77;;;15.33;;
35602;SDS011;21725;50.836;4.368;2023-01-28T16:31:36;20.83;;;15.27;;
35602;SDS011;21725;50.836;4.368;2023-01-28T16:34:37;23.27;;;16.30;;
35602;SDS011;21725;50.836;4.368;2023-01-28T16:37:41;23.98;;;16.55;;
35602;SDS011;21725;50.836;4.368;2023-01-28T16:40:42;20.90;;;14.30;;
35602;SDS011;21725;50.836;4.368;2023-01-28T16:43:44;21.00;;;13.93;;
35602;SDS011;21725;50.836;4.368;2023-01-28T16:46:45;19.65;;;13.80;;
35602;SDS011;21725;50.836;4.368;2023-01-28T16:49:47;21.58;;;13.30;;
35602;SDS011;21725;50.836;4.368;2023-01-28T16:52:49;18.23;;;12.90;;
35602;SDS011;21725;50.836;4.368;2023-01-28T16:55:52;17.75;;;11.85;;
35602;SDS011;21725;50.836;4.368;2023-01-28T16:58:53;19.17;;;12.88;;
35602;SDS011;21725;50.836;4.368;2023-01-28T17:23:59;18.05;;;11.93;;
35602;SDS011;21725;50.836;4.368;2023-01-28T17:27:00;18.30;;;12.77;;
35602;SDS011;21725;50.836;4.368;2023-01-28T17:30:01;16.20;;;11.77;;
35602;SDS011;21725;50.836;4.368;2023-01-28T17:33:02;16.27;;;10.82;;
35602;SDS011;21725;50.836;4.368;2023-01-28T17:36:03;18.48;;;12.50;;
35602;SDS011;21725;50.836;4.368;2023-01-28T17:39:04;17.92;;;10.88;;
35602;SDS011;21725;50.836;4.368;2023-01-28T17:42:06;18.67;;;12.23;;
35602;SDS011;21725;50.836;4.368;2023-01-28T17:45:07;16.98;;;11.00;;
35602;SDS011;21725;50.836;4.368;2023-01-28T17:48:08;17.42;;;11.85;;
35602;SDS011;21725;50.836;4.368;2023-01-28T17:51:09;17.90;;;11.73;;
35602;SDS011;21725;50.836;4.368;2023-01-28T17:54:10;18.13;;;12.07;;
35602;SDS011;21725;50.836;4.368;2023-01-28T17:57:11;18.70;;;11.95;;
35602;SDS011;21725;50.836;4.368;2023-01-28T18:00:12;17.90;;;11.25;;
35602;SDS011;21725;50.836;4.368;2023-01-28T18:03:13;16.25;;;11.23;;
35602;SDS011;21725;50.836;4.368;2023-01-28T18:06:14;18.83;;;10.60;;
35602;SDS011;21725;50.836;4.368;2023-01-28T18:09:16;18.02;;;11.20;;
35602;SDS011;21725;50.836;4.368;2023-01-28T18:12:17;16.67;;;11.43;;
35602;SDS011;21725;50.836;4.368;2023-01-28T18:15:18;17.15;;;11.20;;
35602;SDS011;21725;50.836;4.368;2023-01-28T18:18:18;15.48;;;11.07;;
35602;SDS011;21725;50.836;4.368;2023-01-28T18:24:34;16.05;;;10.40;;
35602;SDS011;21725;50.836;4.368;2023-01-28T18:27:35;17.95;;;12.20;;
35602;SDS011;21725;50.836;4.368;2023-01-28T18:30:36;19.80;;;10.88;;
35602;SDS011;21725;50.836;4.368;2023-01-28T18:33:36;15.75;;;11.00;;
35602;SDS011;21725;50.836;4.368;2023-01-28T18:36:37;17.35;;;11.30;;
35602;SDS011;21725;50.836;4.368;2023-01-28T18:39:38;16.50;;;10.40;;
35602;SDS011;21725;50.836;4.368;2023-01-28T18:42:39;23.80;;;12.77;;
35602;SDS011;21725;50.836;4.368;2023-01-28T18:45:40;18.20;;;11.32;;
35602;SDS011;21725;50.836;4.368;2023-01-28T18:48:43;17.98;;;12.07;;
35602;SDS011;21725;50.836;4.368;2023-01-28T18:51:44;16.70;;;11.52;;
35602;SDS011;21725;50.836;4.368;2023-01-28T18:54:44;20.73;;;12.73;;
35602;SDS011;21725;50.836;4.368;2023-01-28T18:57:45;17.45;;;12.60;;
35602;SDS011;21725;50.836;4.368;2023-01-28T19:00:46;18.73;;;12.73;;
35602;SDS011;21725;50.836;4.368;2023-01-28T19:03:47;17.25;;;11.38;;
35602;SDS011;21725;50.836;4.368;2023-01-28T19:06:47;18.88;;;12.82;;
35602;SDS011;21725;50.836;4.368;2023-01-28T19:09:48;17.60;;;11.98;;
35602;SDS011;21725;50.836;4.368;2023-01-28T19:12:49;18.05;;;12.05;;
35602;SDS011;21725;50.836;4.368;2023-01-28T19:15:49;24.90;;;14.55;;
35602;SDS011;21725;50.836;4.368;2023-01-28T19:18:55;18.02;;;12.02;;
35602;SDS011;21725;50.836;4.368;2023-01-28T19:21:58;18.50;;;13.00;;
35602;SDS011;21725;50.836;4.368;2023-01-28T19:24:58;19.45;;;13.68;;
35602;SDS011;21725;50.836;4.368;2023-01-28T19:27:59;18.92;;;12.02;;
35602;SDS011;21725;50.836;4.368;2023-01-28T19:31:00;22.55;;;14.23;;
35602;SDS011;21725;50.836;4.368;2023-01-28T19:34:01;23.02;;;13.10;;
35602;SDS011;21725;50.836;4.368;2023-01-28T19:37:02;18.48;;;12.65;;
35602;SDS011;21725;50.836;4.368;2023-01-28T19:40:03;20.27;;;13.27;;
35602;SDS011;21725;50.836;4.368;2023-01-28T19:43:05;20.80;;;14.23;;
35602;SDS011;21725;50.836;4.368;2023-01-28T19:46:06;17.75;;;12.07;;
35602;SDS011;21725;50.836;4.368;2023-01-28T19:49:08;17.67;;;12.60;;
35602;SDS011;21725;50.836;4.368;2023-01-28T19:52:11;28.83;;;17.15;;
35602;SDS011;21725;50.836;4.368;2023-01-28T19:55:11;20.67;;;13.68;;
35602;SDS011;21725;50.836;4.368;2023-01-28T19:58:12;32.83;;;18.92;;
35602;SDS011;21725;50.836;4.368;2023-01-28T20:01:17;20.38;;;13.75;;
35602;SDS011;21725;50.836;4.368;2023-01-28T20:04:19;31.27;;;17.30;;
35602;SDS011;21725;50.836;4.368;2023-01-28T20:07:20;19.13;;;13.07;;
35602;SDS011;21725;50.836;4.368;2023-01-28T20:10:21;26.90;;;15.77;;
35602;SDS011;21725;50.836;4.368;2023-01-28T20:13:21;26.02;;;15.77;;
35602;SDS011;21725;50.836;4.368;2023-01-28T20:16:23;24.10;;;14.77;;
35602;SDS011;21725;50.836;4.368;2023-01-28T20:19:25;22.88;;;14.20;;
35602;SDS011;21725;50.836;4.368;2023-01-28T20:22:26;24.42;;;15.90;;
35602;SDS011;21725;50.836;4.368;2023-01-28T20:25:30;26.05;;;17.08;;
35602;SDS011;21725;50.836;4.368;2023-01-28T20:28:32;24.85;;;16.83;;
35602;SDS011;21725;50.836;4.368;2023-01-28T20:31:32;27.35;;;15.65;;
35602;SDS011;21725;50.836;4.368;2023-01-28T20:34:33;25.63;;;16.92;;
35602;SDS011;21725;50.836;4.368;2023-01-28T20:37:34;24.48;;;16.88;;
35602;SDS011;21725;50.836;4.368;2023-01-28T20:40:37;24.60;;;16.27;;
35602;SDS011;21725;50.836;4.368;2023-01-28T20:43:45;27.02;;;17.23;;
35602;SDS011;21725;50.836;4.368;2023-01-28T20:46:47;24.20;;;16.38;;
35602;SDS011;21725;50.836;4.368;2023-01-28T20:49:47;24.40;;;16.20;;
35602;SDS011;21725;50.836;4.368;2023-01-28T20:52:48;31.08;;;19.63;;
35602;SDS011;21725;50.836;4.368;2023-01-28T20:55:55;30.35;;;20.08;;
35602;SDS011;21725;50.836;4.368;2023-01-28T20:58:58;37.70;;;20.30;;
35602;SDS011;21725;50.836;4.368;2023-01-28T21:02:00;34.80;;;21.05;;
35602;SDS011;21725;50.836;4.368;2023-01-28T21:05:02;31.85;;;20.45;;
35602;SDS011;21725;50.836;4.368;2023-01-28T21:08:03;50.40;;;28.38;;
35602;SDS011;21725;50.836;4.368;2023-01-28T21:11:04;36.38;;;22.73;;
35602;SDS011;21725;50.836;4.368;2023-01-28T21:14:09;41.85;;;24.55;;
35602;SDS011;21725;50.836;4.368;2023-01-28T21:17:11;39.65;;;22.23;;
35602;SDS011;21725;50.836;4.368;2023-01-28T21:20:12;44.80;;;26.42;;
35602;SDS011;21725;50.836;4.368;2023-01-28T21:23:12;50.90;;;29.90;;
35602;SDS011;21725;50.836;4.368;2023-01-28T21:26:14;44.75;;;25.42;;
35602;SDS011;21725;50.836;4.368;2023-01-28T21:29:15;38.97;;;23.75;;
35602;SDS011;21725;50.836;4.368;2023-01-28T21:32:17;34.35;;;20.92;;
35602;SDS011;21725;50.836;4.368;2023-01-28T21:35:19;34.22;;;22.60;;
35602;SDS011;21725;50.836;4.368;2023-01-28T21:38:23;33.40;;;21.67;;
35602;SDS011;21725;50.836;4.368;2023-01-28T21:41:24;33.08;;;20.02;;
35602;SDS011;21725;50.836;4.368;2023-01-28T21:44:26;29.95;;;18.95;;
35602;SDS011;21725;50.836;4.368;2023-01-28T21:47:26;31.63;;;20.13;;
35602;SDS011;21725;50.836;4.368;2023-01-28T21:50:30;37.35;;;23.05;;
35602;SDS011;21725;50.836;4.368;2023-01-28T21:53:51;39.75;;;24.30;;
35602;SDS011;21725;50.836;4.368;2023-01-28T21:56:51;33.33;;;21.13;;
35602;SDS011;21725;50.836;4.368;2023-01-28T21:59:52;50.03;;;23.10;;
35602;SDS011;21725;50.836;4.368;2023-01-28T22:02:53;44.10;;;25.90;;
35602;SDS011;21725;50.836;4.368;2023-01-28T22:05:54;41.85;;;24.70;;
35602;SDS011;21725;50.836;4.368;2023-01-28T22:08:54;41.72;;;24.92;;
35602;SDS011;21725;50.836;4.368;2023-01-28T22:11:55;45.13;;;27.33;;
35602;SDS011;21725;50.836;4.368;2023-01-28T22:14:56;45.65;;;26.55;;
35602;SDS011;21725;50.836;4.368;2023-01-28T22:17:57;43.38;;;26.73;;
35602;SDS011;21725;50.836;4.368;2023-01-28T22:21:02;50.10;;;30.60;;
35602;SDS011;21725;50.836;4.368;2023-01-28T22:24:04;47.58;;;30.27;;